ENBN/BNN METAR and TAF weather

Enter ICAO airport designator
Station Type Date Time Source
ENBN METAR 2022/11/26 08:20 UTC NOAA

ENBN 260820Z AUTO VRB07KT 9999NDV SCT190/// 04/M02 Q1018


Station Type Date Time Source
ENBN Decoded METAR 2022/11/26 08:20 UTC NOAA

Bronnoysund / Bronnoy, Norway (ENBN) 65-28N 012-13E 9M
Nov 26, 2022 - 03:20 AM EST / 2022.11.26 0820 UTC
Wind: Variable at 8 MPH (7 KT):0
Sky conditions: partly cloudy
Temperature: 39 F (4 C)
Dew Point: 28 F (-2 C)
Relative Humidity: 64%
Pressure (altimeter): 30.06 in. Hg (1018 hPa)
ob: ENBN 260820Z AUTO VRB07KT 9999NDV SCT190/// 04/M02 Q1018
cycle: 8

Station Type Date Time Source
ENBN TAF 2011/03/27 18:12 UTC NOAA

TAF TAF ENBN 261700Z 2618/2718 CNL

Example: see airport list